sensor_id;sensor_type;location;lat;lon;timestamp;pressure;altitude;pressure_sealevel;temperature;humidity
48390;BME280;34643;47.964;7.982;2022-08-01T00:03:04;96889.56;;;22.98;44.08
48390;BME280;34643;47.964;7.982;2022-08-01T00:08:04;96887.75;;;22.81;44.51
48390;BME280;34643;47.964;7.982;2022-08-01T00:13:04;96886.47;;;22.85;44.44
48390;BME280;34643;47.964;7.982;2022-08-01T00:18:05;96886.00;;;22.90;44.36
48390;BME280;34643;47.964;7.982;2022-08-01T00:23:05;96886.75;;;22.82;44.52
48390;BME280;34643;47.964;7.982;2022-08-01T00:28:05;96888.03;;;22.78;44.78
48390;BME280;34643;47.964;7.982;2022-08-01T00:33:08;96885.25;;;22.80;44.65
48390;BME280;34643;47.964;7.982;2022-08-01T00:38:08;96891.63;;;22.77;44.75
48390;BME280;34643;47.964;7.982;2022-08-01T00:43:09;96890.25;;;22.73;45.00
48390;BME280;34643;47.964;7.982;2022-08-01T00:48:09;96888.59;;;22.72;44.95
48390;BME280;34643;47.964;7.982;2022-08-01T00:53:10;96895.81;;;22.70;45.36
48390;BME280;34643;47.964;7.982;2022-08-01T00:58:10;96882.66;;;22.70;45.17
48390;BME280;34643;47.964;7.982;2022-08-01T01:03:10;96891.28;;;22.62;45.48
48390;BME280;34643;47.964;7.982;2022-08-01T01:08:15;96893.22;;;22.60;45.70
48390;BME280;34643;47.964;7.982;2022-08-01T01:18:33;96893.66;;;22.55;45.50
48390;BME280;34643;47.964;7.982;2022-08-01T01:33:56;96890.06;;;22.47;45.96
48390;BME280;34643;47.964;7.982;2022-08-01T01:38:57;96890.66;;;22.40;46.28
48390;BME280;34643;47.964;7.982;2022-08-01T01:43:58;96888.19;;;22.29;46.43
48390;BME280;34643;47.964;7.982;2022-08-01T01:49:01;96890.13;;;22.37;46.24
48390;BME280;34643;47.964;7.982;2022-08-01T01:54:01;96886.81;;;22.35;46.15
48390;BME280;34643;47.964;7.982;2022-08-01T01:59:02;96896.19;;;22.37;46.00
48390;BME280;34643;47.964;7.982;2022-08-01T02:04:03;96892.06;;;22.35;46.23
48390;BME280;34643;47.964;7.982;2022-08-01T02:09:04;96901.75;;;22.25;46.65
48390;BME280;34643;47.964;7.982;2022-08-01T02:14:05;96895.25;;;22.19;46.76
48390;BME280;34643;47.964;7.982;2022-08-01T02:19:08;96896.34;;;22.16;46.77
48390;BME280;34643;47.964;7.982;2022-08-01T02:29:09;96886.94;;;22.24;46.57
48390;BME280;34643;47.964;7.982;2022-08-01T02:34:10;96887.50;;;22.17;46.58
48390;BME280;34643;47.964;7.982;2022-08-01T02:39:13;96888.31;;;22.18;46.47
48390;BME280;34643;47.964;7.982;2022-08-01T02:44:17;96892.63;;;22.09;46.71
48390;BME280;34643;47.964;7.982;2022-08-01T02:49:23;96900.69;;;21.98;47.22
48390;BME280;34643;47.964;7.982;2022-08-01T02:54:26;96899.84;;;21.97;46.94
48390;BME280;34643;47.964;7.982;2022-08-01T02:59:28;96899.16;;;21.95;47.02
48390;BME280;34643;47.964;7.982;2022-08-01T03:04:30;96903.03;;;21.91;47.21
48390;BME280;34643;47.964;7.982;2022-08-01T03:09:32;96890.03;;;21.99;46.93
48390;BME280;34643;47.964;7.982;2022-08-01T03:14:34;96894.84;;;22.04;46.86
48390;BME280;34643;47.964;7.982;2022-08-01T03:19:36;96890.81;;;22.10;46.75
48390;BME280;34643;47.964;7.982;2022-08-01T03:24:38;96891.38;;;22.13;46.53
48390;BME280;34643;47.964;7.982;2022-08-01T03:29:39;96898.16;;;22.16;46.58
48390;BME280;34643;47.964;7.982;2022-08-01T03:34:41;96896.50;;;22.15;46.50
48390;BME280;34643;47.964;7.982;2022-08-01T03:39:47;96894.31;;;22.10;46.34
48390;BME280;34643;47.964;7.982;2022-08-01T03:44:59;96894.13;;;22.12;46.62
48390;BME280;34643;47.964;7.982;2022-08-01T03:50:03;96903.81;;;22.11;46.67
48390;BME280;34643;47.964;7.982;2022-08-01T03:55:05;96895.53;;;22.06;46.59
48390;BME280;34643;47.964;7.982;2022-08-01T04:00:07;96898.47;;;21.93;46.64
48390;BME280;34643;47.964;7.982;2022-08-01T04:05:17;96885.19;;;21.95;46.86
48390;BME280;34643;47.964;7.982;2022-08-01T04:10:18;96887.09;;;22.02;46.59
48390;BME280;34643;47.964;7.982;2022-08-01T04:15:19;96887.66;;;22.06;46.76
48390;BME280;34643;47.964;7.982;2022-08-01T04:20:20;96888.19;;;22.10;46.55
48390;BME280;34643;47.964;7.982;2022-08-01T04:25:32;96886.16;;;22.03;46.78
48390;BME280;34643;47.964;7.982;2022-08-01T04:30:34;96881.72;;;22.04;46.84
48390;BME280;34643;47.964;7.982;2022-08-01T04:35:36;96889.59;;;22.04;46.70
48390;BME280;34643;47.964;7.982;2022-08-01T04:40:38;96898.03;;;22.08;46.71
48390;BME280;34643;47.964;7.982;2022-08-01T04:45:40;96902.72;;;22.04;46.77
48390;BME280;34643;47.964;7.982;2022-08-01T04:50:40;96902.19;;;22.30;45.94
48390;BME280;34643;47.964;7.982;2022-08-01T04:55:42;96900.53;;;22.66;45.33
48390;BME280;34643;47.964;7.982;2022-08-01T05:00:43;96892.44;;;22.77;45.30
48390;BME280;34643;47.964;7.982;2022-08-01T05:05:43;96897.69;;;22.50;46.07
48390;BME280;34643;47.964;7.982;2022-08-01T05:10:44;96895.06;;;21.23;49.34
48390;BME280;34643;47.964;7.982;2022-08-01T05:15:44;96893.59;;;21.30;49.37
48390;BME280;34643;47.964;7.982;2022-08-01T05:20:45;96887.22;;;21.42;49.13
48390;BME280;34643;47.964;7.982;2022-08-01T05:25:45;96882.53;;;21.36;49.29
48390;BME280;34643;47.964;7.982;2022-08-01T05:30:45;96889.97;;;21.31;49.53
48390;BME280;34643;47.964;7.982;2022-08-01T05:35:45;96887.06;;;21.24;50.31
48390;BME280;34643;47.964;7.982;2022-08-01T05:40:46;96888.41;;;21.50;50.17
48390;BME280;34643;47.964;7.982;2022-08-01T05:45:46;96890.72;;;21.53;50.59
48390;BME280;34643;47.964;7.982;2022-08-01T05:50:47;96882.84;;;21.53;51.23
48390;BME280;34643;47.964;7.982;2022-08-01T05:55:47;96884.66;;;21.72;50.82
48390;BME280;34643;47.964;7.982;2022-08-01T06:00:48;96883.25;;;21.97;49.93
48390;BME280;34643;47.964;7.982;2022-08-01T06:05:48;96891.63;;;22.20;49.36
48390;BME280;34643;47.964;7.982;2022-08-01T06:10:48;96888.72;;;22.23;49.24
48390;BME280;34643;47.964;7.982;2022-08-01T06:15:48;96882.09;;;22.29;49.38
48390;BME280;34643;47.964;7.982;2022-08-01T06:20:49;96882.09;;;22.38;49.01
48390;BME280;34643;47.964;7.982;2022-08-01T06:25:51;96882.91;;;22.39;48.73
48390;BME280;34643;47.964;7.982;2022-08-01T06:30:52;96875.91;;;22.57;48.56
48390;BME280;34643;47.964;7.982;2022-08-01T06:35:53;96873.97;;;22.59;48.44
48390;BME280;34643;47.964;7.982;2022-08-01T06:40:54;96874.63;;;22.71;48.17
48390;BME280;34643;47.964;7.982;2022-08-01T06:45:54;96871.78;;;22.83;47.73
48390;BME280;34643;47.964;7.982;2022-08-01T06:50:54;96869.41;;;22.89;47.69
48390;BME280;34643;47.964;7.982;2022-08-01T06:56:07;96873.84;;;22.89;47.61
48390;BME280;34643;47.964;7.982;2022-08-01T07:01:08;96877.75;;;22.85;48.14
48390;BME280;34643;47.964;7.982;2022-08-01T07:06:09;96871.22;;;22.89;47.77
48390;BME280;34643;47.964;7.982;2022-08-01T07:11:09;96874.38;;;22.92;47.91
48390;BME280;34643;47.964;7.982;2022-08-01T07:16:10;96873.09;;;22.96;48.11
48390;BME280;34643;47.964;7.982;2022-08-01T07:21:10;96870.19;;;23.00;47.56
48390;BME280;34643;47.964;7.982;2022-08-01T07:26:10;96867.69;;;22.98;48.24
48390;BME280;34643;47.964;7.982;2022-08-01T07:31:11;96866.97;;;23.06;47.90
48390;BME280;34643;47.964;7.982;2022-08-01T07:36:12;96865.41;;;23.13;47.34
48390;BME280;34643;47.964;7.982;2022-08-01T07:41:12;96863.47;;;23.15;47.19
48390;BME280;34643;47.964;7.982;2022-08-01T07:46:12;96861.81;;;23.14;47.53
48390;BME280;34643;47.964;7.982;2022-08-01T07:51:13;96858.88;;;23.17;47.35
48390;BME280;34643;47.964;7.982;2022-08-01T07:56:13;96854.28;;;23.19;47.50
48390;BME280;34643;47.964;7.982;2022-08-01T08:01:14;96848.75;;;23.22;47.08
48390;BME280;34643;47.964;7.982;2022-08-01T08:06:14;96847.88;;;23.22;47.32
48390;BME280;34643;47.964;7.982;2022-08-01T08:11:14;96848.41;;;23.25;47.20
48390;BME280;34643;47.964;7.982;2022-08-01T08:16:15;96843.16;;;23.25;47.25
48390;BME280;34643;47.964;7.982;2022-08-01T08:21:15;96839.41;;;23.28;47.10
48390;BME280;34643;47.964;7.982;2022-08-01T08:26:15;96834.00;;;23.29;46.96
48390;BME280;34643;47.964;7.982;2022-08-01T08:31:16;96835.63;;;23.30;46.64
48390;BME280;34643;47.964;7.982;2022-08-01T08:36:16;96840.75;;;23.32;46.23
48390;BME280;34643;47.964;7.982;2022-08-01T08:41:16;96841.56;;;23.32;46.21
48390;BME280;34643;47.964;7.982;2022-08-01T08:46:17;96836.16;;;23.34;46.53
48390;BME280;34643;47.964;7.982;2022-08-01T08:51:18;96840.59;;;23.33;46.42
48390;BME280;34643;47.964;7.982;2022-08-01T08:56:19;96844.72;;;23.36;46.51
48390;BME280;34643;47.964;7.982;2022-08-01T09:01:20;96837.53;;;23.38;46.44
48390;BME280;34643;47.964;7.982;2022-08-01T09:06:20;96838.22;;;23.40;46.39
48390;BME280;34643;47.964;7.982;2022-08-01T09:11:21;96839.03;;;23.41;46.07
48390;BME280;34643;47.964;7.982;2022-08-01T09:16:21;96838.06;;;23.42;46.19
48390;BME280;34643;47.964;7.982;2022-08-01T09:21:23;96848.28;;;23.45;46.36
48390;BME280;34643;47.964;7.982;2022-08-01T09:26:32;96840.06;;;23.48;46.12
48390;BME280;34643;47.964;7.982;2022-08-01T09:31:40;96843.38;;;23.50;46.23
48390;BME280;34643;47.964;7.982;2022-08-01T09:41:46;96839.63;;;23.52;45.88
48390;BME280;34643;47.964;7.982;2022-08-01T09:46:50;96830.72;;;23.53;46.24
48390;BME280;34643;47.964;7.982;2022-08-01T09:51:50;96837.53;;;23.56;45.92
48390;BME280;34643;47.964;7.982;2022-08-01T09:56:51;96833.88;;;23.57;46.08
48390;BME280;34643;47.964;7.982;2022-08-01T10:01:51;96831.94;;;23.59;45.72
48390;BME280;34643;47.964;7.982;2022-08-01T10:06:51;96828.31;;;23.60;46.05
48390;BME280;34643;47.964;7.982;2022-08-01T10:12:03;96822.09;;;23.61;45.99
48390;BME280;34643;47.964;7.982;2022-08-01T10:17:03;96828.19;;;23.62;46.03
48390;BME280;34643;47.964;7.982;2022-08-01T10:22:07;96811.22;;;23.64;45.84
48390;BME280;34643;47.964;7.982;2022-08-01T10:27:08;96805.00;;;23.65;45.82
48390;BME280;34643;47.964;7.982;2022-08-01T10:32:09;96804.84;;;23.67;45.65
48390;BME280;34643;47.964;7.982;2022-08-01T10:37:10;96800.38;;;23.67;45.75
48390;BME280;34643;47.964;7.982;2022-08-01T10:42:11;96795.63;;;23.71;45.54
48390;BME280;34643;47.964;7.982;2022-08-01T10:47:12;96791.19;;;23.71;45.78
48390;BME280;34643;47.964;7.982;2022-08-01T10:52:16;96794.53;;;23.73;45.63
48390;BME280;34643;47.964;7.982;2022-08-01T10:57:16;96783.97;;;23.73;45.58
48390;BME280;34643;47.964;7.982;2022-08-01T11:12:39;96784.50;;;23.77;45.72
48390;BME280;34643;47.964;7.982;2022-08-01T11:17:41;96782.53;;;23.79;46.07
48390;BME280;34643;47.964;7.982;2022-08-01T11:38:42;96750.16;;;23.87;46.16
48390;BME280;34643;47.964;7.982;2022-08-01T11:43:56;96748.19;;;23.89;46.06
48390;BME280;34643;47.964;7.982;2022-08-01T11:54:15;96748.03;;;23.90;45.86
48390;BME280;34643;47.964;7.982;2022-08-01T11:59:16;96743.41;;;23.92;46.03
48390;BME280;34643;47.964;7.982;2022-08-01T12:04:16;96750.34;;;23.94;46.16
48390;BME280;34643;47.964;7.982;2022-08-01T12:09:20;96738.81;;;23.95;46.24
48390;BME280;34643;47.964;7.982;2022-08-01T12:14:21;96743.25;;;23.94;46.33
48390;BME280;34643;47.964;7.982;2022-08-01T12:19:22;96732.41;;;23.97;46.16
48390;BME280;34643;47.964;7.982;2022-08-01T12:24:23;96742.81;;;23.99;46.09
48390;BME280;34643;47.964;7.982;2022-08-01T12:29:30;96739.16;;;24.00;46.29
48390;BME280;34643;47.964;7.982;2022-08-01T12:34:31;96738.19;;;24.01;46.04
48390;BME280;34643;47.964;7.982;2022-08-01T12:39:34;96731.94;;;24.02;46.11
48390;BME280;34643;47.964;7.982;2022-08-01T12:44:35;96729.97;;;24.04;45.96
48390;BME280;34643;47.964;7.982;2022-08-01T12:49:35;96728.97;;;24.05;45.93
48390;BME280;34643;47.964;7.982;2022-08-01T13:05:11;96721.59;;;24.08;45.90
48390;BME280;34643;47.964;7.982;2022-08-01T13:10:13;96708.41;;;24.08;45.94
48390;BME280;34643;47.964;7.982;2022-08-01T13:15:24;96719.59;;;24.10;46.13
48390;BME280;34643;47.964;7.982;2022-08-01T13:20:32;96709.75;;;24.13;45.84
48390;BME280;34643;47.964;7.982;2022-08-01T13:25:32;96707.94;;;24.13;45.66
48390;BME280;34643;47.964;7.982;2022-08-01T13:30:33;96698.06;;;24.15;45.91
48390;BME280;34643;47.964;7.982;2022-08-01T13:35:33;96705.81;;;24.17;45.95
48390;BME280;34643;47.964;7.982;2022-08-01T13:40:33;96704.16;;;24.16;45.59
48390;BME280;34643;47.964;7.982;2022-08-01T13:45:34;96698.38;;;24.12;45.26
48390;BME280;34643;47.964;7.982;2022-08-01T13:50:35;96690.97;;;24.16;45.16
48390;BME280;34643;47.964;7.982;2022-08-01T13:55:35;96692.78;;;24.15;45.15
48390;BME280;34643;47.964;7.982;2022-08-01T14:00:36;96690.50;;;24.20;45.17
48390;BME280;34643;47.964;7.982;2022-08-01T14:05:39;96693.94;;;24.21;45.54
48390;BME280;34643;47.964;7.982;2022-08-01T14:10:40;96686.03;;;24.21;45.43
48390;BME280;34643;47.964;7.982;2022-08-01T14:15:40;96680.13;;;24.27;45.42
48390;BME280;34643;47.964;7.982;2022-08-01T14:20:41;96677.66;;;24.25;45.51
48390;BME280;34643;47.964;7.982;2022-08-01T14:25:41;96669.91;;;24.24;45.54
48390;BME280;34643;47.964;7.982;2022-08-01T14:30:41;96672.69;;;24.22;45.72
48390;BME280;34643;47.964;7.982;2022-08-01T14:35:42;96669.25;;;24.22;46.04
48390;BME280;34643;47.964;7.982;2022-08-01T14:40:43;96687.69;;;24.22;46.10
48390;BME280;34643;47.964;7.982;2022-08-01T14:45:47;96692.13;;;24.21;45.83
48390;BME280;34643;47.964;7.982;2022-08-01T14:50:51;96690.34;;;24.22;45.99
48390;BME280;34643;47.964;7.982;2022-08-01T14:55:54;96694.59;;;24.23;45.76
48390;BME280;34643;47.964;7.982;2022-08-01T15:01:14;96692.13;;;24.21;46.18
48390;BME280;34643;47.964;7.982;2022-08-01T15:06:25;96702.69;;;24.21;46.24
48390;BME280;34643;47.964;7.982;2022-08-01T15:11:26;96684.06;;;24.23;45.88
48390;BME280;34643;47.964;7.982;2022-08-01T15:16:34;96677.81;;;24.24;46.12
48390;BME280;34643;47.964;7.982;2022-08-01T15:21:34;96691.66;;;24.26;46.18
48390;BME280;34643;47.964;7.982;2022-08-01T15:26:35;96695.97;;;24.27;45.82
48390;BME280;34643;47.964;7.982;2022-08-01T15:31:38;96705.50;;;24.28;45.83
48390;BME280;34643;47.964;7.982;2022-08-01T15:36:38;96702.88;;;24.28;45.82
48390;BME280;34643;47.964;7.982;2022-08-01T15:41:39;96705.34;;;24.29;46.25
48390;BME280;34643;47.964;7.982;2022-08-01T15:46:40;96699.25;;;24.29;45.85
48390;BME280;34643;47.964;7.982;2022-08-01T15:51:40;96700.91;;;24.30;46.11
48390;BME280;34643;47.964;7.982;2022-08-01T15:56:41;96692.00;;;24.31;46.02
48390;BME280;34643;47.964;7.982;2022-08-01T16:01:41;96694.66;;;24.31;46.24
48390;BME280;34643;47.964;7.982;2022-08-01T16:06:42;96684.09;;;24.31;46.13
48390;BME280;34643;47.964;7.982;2022-08-01T16:11:43;96692.81;;;24.32;46.11
48390;BME280;34643;47.964;7.982;2022-08-01T16:16:44;96687.75;;;24.38;46.13
48390;BME280;34643;47.964;7.982;2022-08-01T16:21:44;96693.53;;;24.42;46.22
48390;BME280;34643;47.964;7.982;2022-08-01T16:26:44;96696.47;;;24.39;46.07
48390;BME280;34643;47.964;7.982;2022-08-01T16:31:45;96691.34;;;24.37;46.13
48390;BME280;34643;47.964;7.982;2022-08-01T16:36:45;96696.63;;;24.37;46.26
48390;BME280;34643;47.964;7.982;2022-08-01T16:41:45;96701.91;;;24.37;46.02
48390;BME280;34643;47.964;7.982;2022-08-01T16:46:45;96693.03;;;24.38;46.36
48390;BME280;34643;47.964;7.982;2022-08-01T16:51:46;96683.44;;;24.37;46.00
48390;BME280;34643;47.964;7.982;2022-08-01T16:56:46;96693.84;;;24.39;46.23
48390;BME280;34643;47.964;7.982;2022-08-01T17:01:46;96687.59;;;24.40;46.25
48390;BME280;34643;47.964;7.982;2022-08-01T17:06:46;96685.63;;;24.42;46.51
48390;BME280;34643;47.964;7.982;2022-08-01T17:11:46;96685.78;;;24.40;46.42
48390;BME280;34643;47.964;7.982;2022-08-01T17:16:47;96691.03;;;24.40;46.23
48390;BME280;34643;47.964;7.982;2022-08-01T17:21:47;96704.91;;;24.42;46.50
48390;BME280;34643;47.964;7.982;2022-08-01T17:26:48;96707.38;;;24.44;46.53
48390;BME280;34643;47.964;7.982;2022-08-01T17:31:48;96725.19;;;24.42;46.26
48390;BME280;34643;47.964;7.982;2022-08-01T17:36:48;96732.63;;;24.46;46.32
48390;BME280;34643;47.964;7.982;2022-08-01T17:41:48;96734.69;;;24.61;46.23
48390;BME280;34643;47.964;7.982;2022-08-01T17:46:49;96732.69;;;24.63;46.31
48390;BME280;34643;47.964;7.982;2022-08-01T17:51:49;96753.50;;;24.66;46.70
48390;BME280;34643;47.964;7.982;2022-08-01T17:56:49;96779.47;;;24.53;47.04
48390;BME280;34643;47.964;7.982;2022-08-01T18:01:49;96779.88;;;24.66;47.08
48390;BME280;34643;47.964;7.982;2022-08-01T18:06:50;96795.38;;;24.69;47.39
48390;BME280;34643;47.964;7.982;2022-08-01T18:11:51;96839.94;;;24.72;47.51
48390;BME280;34643;47.964;7.982;2022-08-01T18:16:52;96930.34;;;24.74;47.52
48390;BME280;34643;47.964;7.982;2022-08-01T18:21:52;96938.09;;;24.76;47.41
48390;BME280;34643;47.964;7.982;2022-08-01T18:26:52;96911.56;;;24.77;47.83
48390;BME280;34643;47.964;7.982;2022-08-01T18:31:53;96904.16;;;24.81;48.00
48390;BME280;34643;47.964;7.982;2022-08-01T18:36:55;96914.19;;;24.77;48.44
48390;BME280;34643;47.964;7.982;2022-08-01T18:41:55;96907.91;;;24.70;48.90
48390;BME280;34643;47.964;7.982;2022-08-01T18:46:57;96900.94;;;24.69;49.14
48390;BME280;34643;47.964;7.982;2022-08-01T18:51:57;96906.22;;;24.69;49.83
48390;BME280;34643;47.964;7.982;2022-08-01T18:56:57;96916.78;;;24.69;50.17
48390;BME280;34643;47.964;7.982;2022-08-01T19:01:58;96910.69;;;24.69;50.42
48390;BME280;34643;47.964;7.982;2022-08-01T19:06:58;96911.50;;;24.69;51.15
48390;BME280;34643;47.964;7.982;2022-08-01T19:11:58;96916.78;;;24.69;51.08
48390;BME280;34643;47.964;7.982;2022-08-01T19:16:58;96901.78;;;24.70;51.09
48390;BME280;34643;47.964;7.982;2022-08-01T19:21:59;96910.53;;;24.70;51.18
48390;BME280;34643;47.964;7.982;2022-08-01T19:27:00;96902.63;;;24.70;51.79
48390;BME280;34643;47.964;7.982;2022-08-01T19:32:06;96883.13;;;24.71;51.83
48390;BME280;34643;47.964;7.982;2022-08-01T19:37:09;96874.56;;;24.69;52.74
48390;BME280;34643;47.964;7.982;2022-08-01T19:42:11;96897.34;;;24.70;52.49
48390;BME280;34643;47.964;7.982;2022-08-01T19:47:11;96912.34;;;24.70;52.39
48390;BME280;34643;47.964;7.982;2022-08-01T19:52:14;96921.09;;;24.70;52.23
48390;BME280;34643;47.964;7.982;2022-08-01T19:57:14;96928.00;;;24.71;52.58
48390;BME280;34643;47.964;7.982;2022-08-01T20:02:16;96923.72;;;24.70;52.46
48390;BME280;34643;47.964;7.982;2022-08-01T20:07:17;96927.19;;;24.71;52.51
48390;BME280;34643;47.964;7.982;2022-08-01T20:12:18;96926.38;;;24.70;52.51
48390;BME280;34643;47.964;7.982;2022-08-01T20:17:22;96931.78;;;24.69;52.72
48390;BME280;34643;47.964;7.982;2022-08-01T20:22:23;96935.25;;;24.69;52.46
48390;BME280;34643;47.964;7.982;2022-08-01T20:27:29;96936.41;;;24.66;52.60
48390;BME280;34643;47.964;7.982;2022-08-01T20:32:31;96930.31;;;24.66;52.44
48390;BME280;34643;47.964;7.982;2022-08-01T20:37:32;96943.50;;;24.66;52.17
48390;BME280;34643;47.964;7.982;2022-08-01T20:42:34;96948.41;;;24.61;51.91
48390;BME280;34643;47.964;7.982;2022-08-01T20:47:35;96947.91;;;23.95;54.95
48390;BME280;34643;47.964;7.982;2022-08-01T20:52:38;96953.56;;;24.00;53.29
48390;BME280;34643;47.964;7.982;2022-08-01T20:57:45;96957.47;;;23.96;52.88
48390;BME280;34643;47.964;7.982;2022-08-01T21:02:48;96954.81;;;23.96;52.39
48390;BME280;34643;47.964;7.982;2022-08-01T21:07:51;96948.97;;;23.84;53.00
48390;BME280;34643;47.964;7.982;2022-08-01T21:13:04;96948.72;;;23.78;53.38
48390;BME280;34643;47.964;7.982;2022-08-01T21:18:12;96953.72;;;23.81;52.86
48390;BME280;34643;47.964;7.982;2022-08-01T21:28:18;96949.09;;;23.65;53.45
48390;BME280;34643;47.964;7.982;2022-08-01T21:33:19;96944.63;;;23.65;53.26
48390;BME280;34643;47.964;7.982;2022-08-01T21:38:21;96944.88;;;23.72;53.14
48390;BME280;34643;47.964;7.982;2022-08-01T21:43:22;96947.44;;;24.00;52.12
48390;BME280;34643;47.964;7.982;2022-08-01T21:48:22;96954.75;;;23.70;52.95
48390;BME280;34643;47.964;7.982;2022-08-01T21:53:25;96953.31;;;23.76;52.46
48390;BME280;34643;47.964;7.982;2022-08-01T22:03:45;96969.03;;;23.67;52.55
48390;BME280;34643;47.964;7.982;2022-08-01T22:08:49;96984.56;;;23.70;52.68
48390;BME280;34643;47.964;7.982;2022-08-01T22:13:56;96993.28;;;23.71;52.70
48390;BME280;34643;47.964;7.982;2022-08-01T22:18:57;96992.75;;;23.67;52.77
48390;BME280;34643;47.964;7.982;2022-08-01T22:24:00;97001.41;;;23.60;52.58
48390;BME280;34643;47.964;7.982;2022-08-01T22:29:01;96997.25;;;23.57;52.67
48390;BME280;34643;47.964;7.982;2022-08-01T22:34:02;97004.84;;;23.60;52.52
48390;BME280;34643;47.964;7.982;2022-08-01T22:39:02;96999.59;;;23.60;52.66
48390;BME280;34643;47.964;7.982;2022-08-01T22:44:07;97000.41;;;23.61;52.65
48390;BME280;34643;47.964;7.982;2022-08-01T22:49:21;97003.88;;;23.61;52.78
48390;BME280;34643;47.964;7.982;2022-08-01T22:54:34;97004.94;;;23.50;52.72
48390;BME280;34643;47.964;7.982;2022-08-01T22:59:58;97007.31;;;23.44;53.05
48390;BME280;34643;47.964;7.982;2022-08-01T23:04:56;96998.41;;;23.45;52.57
48390;BME280;34643;47.964;7.982;2022-08-01T23:10:02;97008.00;;;23.46;52.46
48390;BME280;34643;47.964;7.982;2022-08-01T23:20:04;97006.31;;;23.45;52.44
48390;BME280;34643;47.964;7.982;2022-08-01T23:25:05;97019.63;;;23.43;52.68
48390;BME280;34643;47.964;7.982;2022-08-01T23:30:06;97019.50;;;23.45;52.50
48390;BME280;34643;47.964;7.982;2022-08-01T23:35:06;97011.50;;;23.37;52.58
48390;BME280;34643;47.964;7.982;2022-08-01T23:40:07;97017.47;;;23.39;52.35
48390;BME280;34643;47.964;7.982;2022-08-01T23:45:08;97014.84;;;23.29;52.95
48390;BME280;34643;47.964;7.982;2022-08-01T23:50:08;97016.38;;;23.31;52.53
48390;BME280;34643;47.964;7.982;2022-08-01T23:55:08;97009.16;;;23.33;52.83
